sensor_id;sensor_type;location;lat;lon;timestamp;temperature;humidity
27819;DHT22;15192;44.854;10.046;2023-05-10T00:00:45;15.20;99.90
27819;DHT22;15192;44.854;10.046;2023-05-10T00:03:14;15.20;99.90
27819;DHT22;15192;44.854;10.046;2023-05-10T00:05:43;15.20;99.90
27819;DHT22;15192;44.854;10.046;2023-05-10T00:08:12;15.20;99.90
27819;DHT22;15192;44.854;10.046;2023-05-10T00:10:41;15.10;99.90
27819;DHT22;15192;44.854;10.046;2023-05-10T00:13:10;15.00;99.90
27819;DHT22;15192;44.854;10.046;2023-05-10T00:15:39;15.00;99.90
27819;DHT22;15192;44.854;10.046;2023-05-10T00:18:07;15.00;99.90
27819;DHT22;15192;44.854;10.046;2023-05-10T00:20:36;15.00;99.90
27819;DHT22;15192;44.854;10.046;2023-05-10T00:23:05;14.90;99.90
27819;DHT22;15192;44.854;10.046;2023-05-10T00:25:34;14.90;99.90
27819;DHT22;15192;44.854;10.046;2023-05-10T00:28:03;14.90;99.90
27819;DHT22;15192;44.854;10.046;2023-05-10T00:30:32;14.80;99.90
27819;DHT22;15192;44.854;10.046;2023-05-10T00:33:02;14.80;99.90
27819;DHT22;15192;44.854;10.046;2023-05-10T00:35:31;14.80;99.90
27819;DHT22;15192;44.854;10.046;2023-05-10T00:38:00;14.80;99.90
27819;DHT22;15192;44.854;10.046;2023-05-10T00:40:29;14.70;99.90
27819;DHT22;15192;44.854;10.046;2023-05-10T00:43:00;14.60;99.90
27819;DHT22;15192;44.854;10.046;2023-05-10T00:45:30;14.60;99.90
27819;DHT22;15192;44.854;10.046;2023-05-10T00:48:02;14.60;99.90
27819;DHT22;15192;44.854;10.046;2023-05-10T00:50:32;14.50;99.90
27819;DHT22;15192;44.854;10.046;2023-05-10T00:53:02;14.50;99.90
27819;DHT22;15192;44.854;10.046;2023-05-10T00:55:31;14.50;99.90
27819;DHT22;15192;44.854;10.046;2023-05-10T00:58:01;14.50;99.90
27819;DHT22;15192;44.854;10.046;2023-05-10T01:00:30;14.50;99.90
27819;DHT22;15192;44.854;10.046;2023-05-10T01:03:00;14.60;99.90
27819;DHT22;15192;44.854;10.046;2023-05-10T01:05:29;14.60;99.90
27819;DHT22;15192;44.854;10.046;2023-05-10T01:07:59;14.60;99.90
27819;DHT22;15192;44.854;10.046;2023-05-10T01:10:31;14.50;99.90
27819;DHT22;15192;44.854;10.046;2023-05-10T01:13:00;14.50;99.90
27819;DHT22;15192;44.854;10.046;2023-05-10T01:15:30;14.50;99.90
27819;DHT22;15192;44.854;10.046;2023-05-10T01:18:00;14.50;99.90
27819;DHT22;15192;44.854;10.046;2023-05-10T01:20:32;14.50;99.90
27819;DHT22;15192;44.854;10.046;2023-05-10T01:23:10;14.50;99.90
27819;DHT22;15192;44.854;10.046;2023-05-10T01:28:58;14.60;99.90
27819;DHT22;15192;44.854;10.046;2023-05-10T01:31:31;14.60;99.90
27819;DHT22;15192;44.854;10.046;2023-05-10T01:34:20;14.60;99.90
27819;DHT22;15192;44.854;10.046;2023-05-10T01:36:53;14.50;99.90
27819;DHT22;15192;44.854;10.046;2023-05-10T01:39:22;14.50;99.90
27819;DHT22;15192;44.854;10.046;2023-05-10T01:42:44;14.50;99.90
27819;DHT22;15192;44.854;10.046;2023-05-10T01:44:40;14.50;99.90
27819;DHT22;15192;44.854;10.046;2023-05-10T01:47:20;14.50;99.90
27819;DHT22;15192;44.854;10.046;2023-05-10T01:49:45;14.50;99.90
27819;DHT22;15192;44.854;10.046;2023-05-10T01:52:16;14.50;99.90
27819;DHT22;15192;44.854;10.046;2023-05-10T01:55:02;14.50;99.90
27819;DHT22;15192;44.854;10.046;2023-05-10T01:57:34;14.50;99.90
27819;DHT22;15192;44.854;10.046;2023-05-10T02:00:05;14.50;99.90
27819;DHT22;15192;44.854;10.046;2023-05-10T02:02:45;14.50;99.90
27819;DHT22;15192;44.854;10.046;2023-05-10T02:05:16;14.50;99.90
27819;DHT22;15192;44.854;10.046;2023-05-10T02:07:46;14.50;99.90
27819;DHT22;15192;44.854;10.046;2023-05-10T02:10:16;14.40;99.90
27819;DHT22;15192;44.854;10.046;2023-05-10T02:12:47;14.50;99.90
27819;DHT22;15192;44.854;10.046;2023-05-10T02:15:23;14.50;99.90
27819;DHT22;15192;44.854;10.046;2023-05-10T02:17:49;14.50;99.90
27819;DHT22;15192;44.854;10.046;2023-05-10T02:20:19;14.50;99.90
27819;DHT22;15192;44.854;10.046;2023-05-10T02:22:51;14.50;99.90
27819;DHT22;15192;44.854;10.046;2023-05-10T02:25:21;14.40;99.90
27819;DHT22;15192;44.854;10.046;2023-05-10T02:27:55;14.40;99.90
27819;DHT22;15192;44.854;10.046;2023-05-10T02:30:25;14.40;99.90
27819;DHT22;15192;44.854;10.046;2023-05-10T02:32:55;14.40;99.90
27819;DHT22;15192;44.854;10.046;2023-05-10T02:35:26;14.40;99.90
27819;DHT22;15192;44.854;10.046;2023-05-10T02:37:55;14.40;99.90
27819;DHT22;15192;44.854;10.046;2023-05-10T02:40:26;14.40;99.90
27819;DHT22;15192;44.854;10.046;2023-05-10T02:42:57;14.40;99.90
27819;DHT22;15192;44.854;10.046;2023-05-10T02:45:30;14.40;99.90
27819;DHT22;15192;44.854;10.046;2023-05-10T02:47:59;14.30;99.90
27819;DHT22;15192;44.854;10.046;2023-05-10T02:50:30;14.30;99.90
27819;DHT22;15192;44.854;10.046;2023-05-10T02:53:00;14.30;99.90
27819;DHT22;15192;44.854;10.046;2023-05-10T02:55:38;14.40;99.90
27819;DHT22;15192;44.854;10.046;2023-05-10T02:58:07;14.40;99.90
27819;DHT22;15192;44.854;10.046;2023-05-10T03:00:36;14.40;99.90
27819;DHT22;15192;44.854;10.046;2023-05-10T03:03:05;14.40;99.90
27819;DHT22;15192;44.854;10.046;2023-05-10T03:05:34;14.40;99.90
27819;DHT22;15192;44.854;10.046;2023-05-10T03:08:04;14.40;99.90
27819;DHT22;15192;44.854;10.046;2023-05-10T03:10:38;14.40;99.90
27819;DHT22;15192;44.854;10.046;2023-05-10T03:13:39;14.50;99.90
27819;DHT22;15192;44.854;10.046;2023-05-10T03:16:12;14.40;99.90
27819;DHT22;15192;44.854;10.046;2023-05-10T03:21:30;14.40;99.90
27819;DHT22;15192;44.854;10.046;2023-05-10T03:24:05;14.30;99.90
27819;DHT22;15192;44.854;10.046;2023-05-10T03:26:32;14.30;99.90
27819;DHT22;15192;44.854;10.046;2023-05-10T03:29:03;14.20;99.90
27819;DHT22;15192;44.854;10.046;2023-05-10T03:31:33;14.20;99.90
27819;DHT22;15192;44.854;10.046;2023-05-10T03:34:02;14.10;99.90
27819;DHT22;15192;44.854;10.046;2023-05-10T03:36:31;14.10;99.90
27819;DHT22;15192;44.854;10.046;2023-05-10T03:39:00;14.10;99.90
27819;DHT22;15192;44.854;10.046;2023-05-10T03:41:30;14.10;99.90
27819;DHT22;15192;44.854;10.046;2023-05-10T03:43:59;14.10;99.90
27819;DHT22;15192;44.854;10.046;2023-05-10T03:46:29;14.10;99.90
27819;DHT22;15192;44.854;10.046;2023-05-10T03:48:58;14.20;99.90
27819;DHT22;15192;44.854;10.046;2023-05-10T03:51:27;14.10;99.90
27819;DHT22;15192;44.854;10.046;2023-05-10T03:53:57;14.10;99.90
27819;DHT22;15192;44.854;10.046;2023-05-10T03:56:26;14.10;99.90
27819;DHT22;15192;44.854;10.046;2023-05-10T03:58:55;14.10;99.90
27819;DHT22;15192;44.854;10.046;2023-05-10T04:01:24;14.10;99.90
27819;DHT22;15192;44.854;10.046;2023-05-10T04:03:53;14.10;99.90
27819;DHT22;15192;44.854;10.046;2023-05-10T04:06:22;14.10;99.90
27819;DHT22;15192;44.854;10.046;2023-05-10T04:08:51;14.00;99.90
27819;DHT22;15192;44.854;10.046;2023-05-10T04:11:20;14.00;99.90
27819;DHT22;15192;44.854;10.046;2023-05-10T04:13:49;14.10;99.90
27819;DHT22;15192;44.854;10.046;2023-05-10T04:16:18;14.10;99.90
27819;DHT22;15192;44.854;10.046;2023-05-10T04:18:47;14.00;99.90
27819;DHT22;15192;44.854;10.046;2023-05-10T04:21:16;14.00;99.90
27819;DHT22;15192;44.854;10.046;2023-05-10T04:23:45;14.00;99.90
27819;DHT22;15192;44.854;10.046;2023-05-10T04:26:14;14.00;99.90
27819;DHT22;15192;44.854;10.046;2023-05-10T04:28:43;14.00;99.90
27819;DHT22;15192;44.854;10.046;2023-05-10T04:31:12;14.00;99.90
27819;DHT22;15192;44.854;10.046;2023-05-10T04:33:41;14.00;99.90
27819;DHT22;15192;44.854;10.046;2023-05-10T04:36:09;13.90;99.90
27819;DHT22;15192;44.854;10.046;2023-05-10T04:38:38;14.00;99.90
27819;DHT22;15192;44.854;10.046;2023-05-10T04:41:09;13.90;99.90
27819;DHT22;15192;44.854;10.046;2023-05-10T04:43:38;13.90;99.90
27819;DHT22;15192;44.854;10.046;2023-05-10T04:46:07;13.90;99.90
27819;DHT22;15192;44.854;10.046;2023-05-10T04:48:36;13.80;99.90
27819;DHT22;15192;44.854;10.046;2023-05-10T04:51:05;13.80;99.90
27819;DHT22;15192;44.854;10.046;2023-05-10T04:53:34;13.80;99.90
27819;DHT22;15192;44.854;10.046;2023-05-10T04:56:03;13.80;99.90
27819;DHT22;15192;44.854;10.046;2023-05-10T04:58:32;13.80;99.90
27819;DHT22;15192;44.854;10.046;2023-05-10T05:01:08;13.80;99.90
27819;DHT22;15192;44.854;10.046;2023-05-10T05:03:38;13.80;99.90
27819;DHT22;15192;44.854;10.046;2023-05-10T05:06:07;13.70;99.90
27819;DHT22;15192;44.854;10.046;2023-05-10T05:08:36;13.70;99.90
27819;DHT22;15192;44.854;10.046;2023-05-10T05:11:05;13.70;99.90
27819;DHT22;15192;44.854;10.046;2023-05-10T05:13:34;13.70;99.90
27819;DHT22;15192;44.854;10.046;2023-05-10T05:16:03;13.80;99.90
27819;DHT22;15192;44.854;10.046;2023-05-10T05:18:32;13.80;99.90
27819;DHT22;15192;44.854;10.046;2023-05-10T05:21:00;13.80;99.90
27819;DHT22;15192;44.854;10.046;2023-05-10T05:23:30;13.80;99.90
27819;DHT22;15192;44.854;10.046;2023-05-10T05:25:59;13.80;99.90
27819;DHT22;15192;44.854;10.046;2023-05-10T05:28:27;13.70;99.90
27819;DHT22;15192;44.854;10.046;2023-05-10T05:30:58;13.80;99.90
27819;DHT22;15192;44.854;10.046;2023-05-10T05:33:27;13.70;99.90
27819;DHT22;15192;44.854;10.046;2023-05-10T05:35:55;13.50;99.90
27819;DHT22;15192;44.854;10.046;2023-05-10T05:38:24;13.40;99.90
27819;DHT22;15192;44.854;10.046;2023-05-10T05:40:53;13.30;99.90
27819;DHT22;15192;44.854;10.046;2023-05-10T05:43:22;13.20;99.90
27819;DHT22;15192;44.854;10.046;2023-05-10T05:45:55;13.10;99.90
27819;DHT22;15192;44.854;10.046;2023-05-10T05:48:25;12.90;99.90
27819;DHT22;15192;44.854;10.046;2023-05-10T05:50:57;12.90;99.90
27819;DHT22;15192;44.854;10.046;2023-05-10T05:53:26;12.90;99.90
27819;DHT22;15192;44.854;10.046;2023-05-10T05:55:57;13.00;99.90
27819;DHT22;15192;44.854;10.046;2023-05-10T05:58:26;12.80;99.90
27819;DHT22;15192;44.854;10.046;2023-05-10T06:00:55;12.70;99.90
27819;DHT22;15192;44.854;10.046;2023-05-10T06:03:24;12.70;99.90
27819;DHT22;15192;44.854;10.046;2023-05-10T06:05:53;12.70;99.90
27819;DHT22;15192;44.854;10.046;2023-05-10T06:08:22;12.70;99.90
27819;DHT22;15192;44.854;10.046;2023-05-10T06:10:51;12.60;99.90
27819;DHT22;15192;44.854;10.046;2023-05-10T06:13:20;12.60;99.90
27819;DHT22;15192;44.854;10.046;2023-05-10T06:15:49;12.60;99.90
27819;DHT22;15192;44.854;10.046;2023-05-10T06:18:18;12.60;99.90
27819;DHT22;15192;44.854;10.046;2023-05-10T06:20:47;12.60;99.90
27819;DHT22;15192;44.854;10.046;2023-05-10T06:23:17;12.70;99.90
27819;DHT22;15192;44.854;10.046;2023-05-10T06:25:46;12.70;99.90
27819;DHT22;15192;44.854;10.046;2023-05-10T06:28:15;12.60;99.90
27819;DHT22;15192;44.854;10.046;2023-05-10T06:30:44;12.70;99.90
27819;DHT22;15192;44.854;10.046;2023-05-10T06:33:13;12.70;99.90
27819;DHT22;15192;44.854;10.046;2023-05-10T06:35:43;12.60;99.90
27819;DHT22;15192;44.854;10.046;2023-05-10T06:38:12;12.60;99.90
27819;DHT22;15192;44.854;10.046;2023-05-10T06:40:42;12.60;99.90
27819;DHT22;15192;44.854;10.046;2023-05-10T06:43:11;12.60;99.90
27819;DHT22;15192;44.854;10.046;2023-05-10T06:45:40;12.50;99.90
27819;DHT22;15192;44.854;10.046;2023-05-10T06:48:08;12.50;99.90
27819;DHT22;15192;44.854;10.046;2023-05-10T06:50:37;12.50;99.90
27819;DHT22;15192;44.854;10.046;2023-05-10T06:53:06;12.50;99.90
27819;DHT22;15192;44.854;10.046;2023-05-10T06:55:35;12.50;99.90
27819;DHT22;15192;44.854;10.046;2023-05-10T06:58:04;12.50;99.90
27819;DHT22;15192;44.854;10.046;2023-05-10T07:00:34;12.50;99.90
27819;DHT22;15192;44.854;10.046;2023-05-10T07:03:03;12.40;99.90
27819;DHT22;15192;44.854;10.046;2023-05-10T07:05:32;12.40;99.90
27819;DHT22;15192;44.854;10.046;2023-05-10T07:08:01;12.40;99.90
27819;DHT22;15192;44.854;10.046;2023-05-10T07:10:29;12.30;99.90
27819;DHT22;15192;44.854;10.046;2023-05-10T07:12:58;12.40;99.90
27819;DHT22;15192;44.854;10.046;2023-05-10T07:15:28;12.40;99.90
27819;DHT22;15192;44.854;10.046;2023-05-10T07:17:58;12.30;99.90
27819;DHT22;15192;44.854;10.046;2023-05-10T07:20:27;12.20;99.90
27819;DHT22;15192;44.854;10.046;2023-05-10T07:22:55;12.20;99.90
27819;DHT22;15192;44.854;10.046;2023-05-10T07:25:24;12.20;99.90
27819;DHT22;15192;44.854;10.046;2023-05-10T07:27:53;12.20;99.90
27819;DHT22;15192;44.854;10.046;2023-05-10T07:30:22;12.20;99.90
27819;DHT22;15192;44.854;10.046;2023-05-10T07:32:51;12.20;99.90
27819;DHT22;15192;44.854;10.046;2023-05-10T07:35:20;12.20;99.90
27819;DHT22;15192;44.854;10.046;2023-05-10T07:37:49;12.20;99.90
27819;DHT22;15192;44.854;10.046;2023-05-10T07:40:18;12.20;99.90
27819;DHT22;15192;44.854;10.046;2023-05-10T07:42:47;12.20;99.90
27819;DHT22;15192;44.854;10.046;2023-05-10T07:45:16;12.20;99.90
27819;DHT22;15192;44.854;10.046;2023-05-10T07:47:45;12.20;99.90
27819;DHT22;15192;44.854;10.046;2023-05-10T07:50:14;12.30;99.90
27819;DHT22;15192;44.854;10.046;2023-05-10T07:52:43;12.30;99.90
27819;DHT22;15192;44.854;10.046;2023-05-10T07:55:12;12.30;99.90
27819;DHT22;15192;44.854;10.046;2023-05-10T07:57:42;12.30;99.90
27819;DHT22;15192;44.854;10.046;2023-05-10T08:00:13;12.30;99.90
27819;DHT22;15192;44.854;10.046;2023-05-10T08:02:43;12.30;99.90
27819;DHT22;15192;44.854;10.046;2023-05-10T08:05:11;12.20;99.90
27819;DHT22;15192;44.854;10.046;2023-05-10T08:07:41;12.20;99.90
27819;DHT22;15192;44.854;10.046;2023-05-10T08:10:10;12.20;99.90
27819;DHT22;15192;44.854;10.046;2023-05-10T08:12:39;12.20;99.90
27819;DHT22;15192;44.854;10.046;2023-05-10T08:15:08;12.20;99.90
27819;DHT22;15192;44.854;10.046;2023-05-10T08:17:37;12.20;99.90
27819;DHT22;15192;44.854;10.046;2023-05-10T08:20:07;12.40;99.90
27819;DHT22;15192;44.854;10.046;2023-05-10T08:22:36;12.30;99.90
27819;DHT22;15192;44.854;10.046;2023-05-10T08:25:05;12.30;99.90
27819;DHT22;15192;44.854;10.046;2023-05-10T08:27:34;12.40;99.90
27819;DHT22;15192;44.854;10.046;2023-05-10T08:30:03;12.40;99.90
27819;DHT22;15192;44.854;10.046;2023-05-10T08:32:32;12.50;99.90
27819;DHT22;15192;44.854;10.046;2023-05-10T08:35:02;12.40;99.90
27819;DHT22;15192;44.854;10.046;2023-05-10T08:37:31;12.40;99.90
27819;DHT22;15192;44.854;10.046;2023-05-10T08:40:00;12.50;99.90
27819;DHT22;15192;44.854;10.046;2023-05-10T08:42:30;12.40;99.90
27819;DHT22;15192;44.854;10.046;2023-05-10T08:45:02;12.40;99.90
27819;DHT22;15192;44.854;10.046;2023-05-10T08:47:31;12.40;99.90
27819;DHT22;15192;44.854;10.046;2023-05-10T08:50:00;12.50;99.90
27819;DHT22;15192;44.854;10.046;2023-05-10T08:52:32;12.50;99.90
27819;DHT22;15192;44.854;10.046;2023-05-10T08:55:03;12.50;99.90
27819;DHT22;15192;44.854;10.046;2023-05-10T08:57:32;12.50;99.90
27819;DHT22;15192;44.854;10.046;2023-05-10T09:00:01;12.60;99.90
27819;DHT22;15192;44.854;10.046;2023-05-10T09:02:31;12.60;99.90
27819;DHT22;15192;44.854;10.046;2023-05-10T09:05:00;12.70;99.90
27819;DHT22;15192;44.854;10.046;2023-05-10T09:07:29;12.70;99.90
27819;DHT22;15192;44.854;10.046;2023-05-10T09:09:58;12.60;99.90
27819;DHT22;15192;44.854;10.046;2023-05-10T09:12:27;12.60;99.90
27819;DHT22;15192;44.854;10.046;2023-05-10T09:14:59;12.70;99.90
27819;DHT22;15192;44.854;10.046;2023-05-10T09:17:29;12.70;99.90
27819;DHT22;15192;44.854;10.046;2023-05-10T09:20:00;12.70;99.90
27819;DHT22;15192;44.854;10.046;2023-05-10T09:22:30;12.70;99.90
27819;DHT22;15192;44.854;10.046;2023-05-10T09:25:10;12.80;99.90
27819;DHT22;15192;44.854;10.046;2023-05-10T09:27:41;12.80;99.90
27819;DHT22;15192;44.854;10.046;2023-05-10T09:30:10;12.90;99.90
27819;DHT22;15192;44.854;10.046;2023-05-10T09:32:44;12.90;99.90
27819;DHT22;15192;44.854;10.046;2023-05-10T09:35:16;13.00;99.90
27819;DHT22;15192;44.854;10.046;2023-05-10T09:37:50;13.10;99.90
27819;DHT22;15192;44.854;10.046;2023-05-10T09:40:24;13.10;99.90
27819;DHT22;15192;44.854;10.046;2023-05-10T09:43:02;13.10;99.90
27819;DHT22;15192;44.854;10.046;2023-05-10T09:45:32;13.10;99.90
27819;DHT22;15192;44.854;10.046;2023-05-10T09:48:02;13.20;99.90
27819;DHT22;15192;44.854;10.046;2023-05-10T09:50:31;13.10;99.90
27819;DHT22;15192;44.854;10.046;2023-05-10T09:53:03;13.20;99.90
27819;DHT22;15192;44.854;10.046;2023-05-10T09:55:45;13.20;99.90
27819;DHT22;15192;44.854;10.046;2023-05-10T09:58:16;13.20;99.90
27819;DHT22;15192;44.854;10.046;2023-05-10T10:00:46;13.30;99.90
27819;DHT22;15192;44.854;10.046;2023-05-10T10:03:19;13.20;99.90
27819;DHT22;15192;44.854;10.046;2023-05-10T10:05:49;13.20;99.90
27819;DHT22;15192;44.854;10.046;2023-05-10T10:08:18;13.20;99.90
27819;DHT22;15192;44.854;10.046;2023-05-10T10:10:46;13.20;99.90
27819;DHT22;15192;44.854;10.046;2023-05-10T10:13:15;13.20;99.90
27819;DHT22;15192;44.854;10.046;2023-05-10T10:15:45;13.30;99.90
27819;DHT22;15192;44.854;10.046;2023-05-10T10:18:15;13.30;99.90
27819;DHT22;15192;44.854;10.046;2023-05-10T10:20:44;13.30;99.90
27819;DHT22;15192;44.854;10.046;2023-05-10T10:23:13;13.30;99.90
27819;DHT22;15192;44.854;10.046;2023-05-10T10:25:42;13.20;99.90
27819;DHT22;15192;44.854;10.046;2023-05-10T10:28:21;13.20;99.90
27819;DHT22;15192;44.854;10.046;2023-05-10T10:30:50;13.10;99.90
27819;DHT22;15192;44.854;10.046;2023-05-10T10:36:03;13.00;99.90
27819;DHT22;15192;44.854;10.046;2023-05-10T10:38:59;13.00;99.90
27819;DHT22;15192;44.854;10.046;2023-05-10T10:41:35;13.00;99.90
27819;DHT22;15192;44.854;10.046;2023-05-10T10:52:35;13.00;99.90
27819;DHT22;15192;44.854;10.046;2023-05-10T10:55:13;13.00;99.90
27819;DHT22;15192;44.854;10.046;2023-05-10T10:57:50;13.10;99.90
27819;DHT22;15192;44.854;10.046;2023-05-10T11:03:10;13.30;99.90
27819;DHT22;15192;44.854;10.046;2023-05-10T11:05:49;13.50;99.90
27819;DHT22;15192;44.854;10.046;2023-05-10T11:08:30;13.70;99.90
27819;DHT22;15192;44.854;10.046;2023-05-10T11:13:45;13.90;99.90
27819;DHT22;15192;44.854;10.046;2023-05-10T11:16:20;13.80;99.90
27819;DHT22;15192;44.854;10.046;2023-05-10T11:19:00;13.80;99.90
27819;DHT22;15192;44.854;10.046;2023-05-10T11:21:31;13.80;99.90
27819;DHT22;15192;44.854;10.046;2023-05-10T11:24:01;13.70;99.90
27819;DHT22;15192;44.854;10.046;2023-05-10T11:26:35;13.80;99.90
27819;DHT22;15192;44.854;10.046;2023-05-10T11:29:04;13.80;99.90
27819;DHT22;15192;44.854;10.046;2023-05-10T11:31:34;13.90;99.90
27819;DHT22;15192;44.854;10.046;2023-05-10T11:34:03;14.00;99.90
27819;DHT22;15192;44.854;10.046;2023-05-10T11:36:35;14.10;99.90
27819;DHT22;15192;44.854;10.046;2023-05-10T11:39:05;14.20;99.90
27819;DHT22;15192;44.854;10.046;2023-05-10T11:41:34;14.20;99.90
27819;DHT22;15192;44.854;10.046;2023-05-10T11:44:03;14.30;99.90
27819;DHT22;15192;44.854;10.046;2023-05-10T11:46:32;14.30;99.90
27819;DHT22;15192;44.854;10.046;2023-05-10T11:49:01;14.30;99.90
27819;DHT22;15192;44.854;10.046;2023-05-10T11:51:39;14.40;99.90
27819;DHT22;15192;44.854;10.046;2023-05-10T11:54:08;14.40;99.90
27819;DHT22;15192;44.854;10.046;2023-05-10T11:56:38;14.40;99.90
27819;DHT22;15192;44.854;10.046;2023-05-10T11:59:07;14.30;99.90
27819;DHT22;15192;44.854;10.046;2023-05-10T12:01:36;14.30;99.90
27819;DHT22;15192;44.854;10.046;2023-05-10T12:04:06;14.30;99.90
27819;DHT22;15192;44.854;10.046;2023-05-10T12:06:37;14.30;99.90
27819;DHT22;15192;44.854;10.046;2023-05-10T12:09:07;14.20;99.90
27819;DHT22;15192;44.854;10.046;2023-05-10T12:11:38;14.20;99.90
27819;DHT22;15192;44.854;10.046;2023-05-10T12:14:08;14.10;99.90
27819;DHT22;15192;44.854;10.046;2023-05-10T12:16:38;14.10;99.90
27819;DHT22;15192;44.854;10.046;2023-05-10T12:19:07;14.10;99.90
27819;DHT22;15192;44.854;10.046;2023-05-10T12:21:36;14.20;99.90
27819;DHT22;15192;44.854;10.046;2023-05-10T12:24:06;14.20;99.90
27819;DHT22;15192;44.854;10.046;2023-05-10T12:26:36;14.20;99.90
27819;DHT22;15192;44.854;10.046;2023-05-10T12:29:18;14.30;99.90
27819;DHT22;15192;44.854;10.046;2023-05-10T12:31:55;14.50;99.90
27819;DHT22;15192;44.854;10.046;2023-05-10T12:34:30;14.60;99.90
27819;DHT22;15192;44.854;10.046;2023-05-10T12:37:01;14.70;99.90
27819;DHT22;15192;44.854;10.046;2023-05-10T12:39:43;14.70;99.90
27819;DHT22;15192;44.854;10.046;2023-05-10T12:42:13;14.70;99.90
27819;DHT22;15192;44.854;10.046;2023-05-10T12:44:42;14.70;99.90
27819;DHT22;15192;44.854;10.046;2023-05-10T12:47:11;14.80;99.90
27819;DHT22;15192;44.854;10.046;2023-05-10T12:49:40;14.90;99.90
27819;DHT22;15192;44.854;10.046;2023-05-10T12:52:09;15.10;99.90
27819;DHT22;15192;44.854;10.046;2023-05-10T12:54:38;15.10;99.90
27819;DHT22;15192;44.854;10.046;2023-05-10T12:57:06;15.10;99.90
27819;DHT22;15192;44.854;10.046;2023-05-10T12:59:35;15.20;99.90
27819;DHT22;15192;44.854;10.046;2023-05-10T13:02:04;15.30;99.90
27819;DHT22;15192;44.854;10.046;2023-05-10T13:04:33;15.30;99.90
27819;DHT22;15192;44.854;10.046;2023-05-10T13:07:02;15.20;99.90
27819;DHT22;15192;44.854;10.046;2023-05-10T13:09:31;15.20;99.90
27819;DHT22;15192;44.854;10.046;2023-05-10T13:12:00;15.20;99.90
27819;DHT22;15192;44.854;10.046;2023-05-10T13:14:29;15.40;99.90
27819;DHT22;15192;44.854;10.046;2023-05-10T13:16:58;15.50;99.90
27819;DHT22;15192;44.854;10.046;2023-05-10T13:19:27;15.60;99.90
27819;DHT22;15192;44.854;10.046;2023-05-10T13:21:56;15.70;99.90
27819;DHT22;15192;44.854;10.046;2023-05-10T13:24:25;15.90;99.90
27819;DHT22;15192;44.854;10.046;2023-05-10T13:26:54;16.00;99.90
27819;DHT22;15192;44.854;10.046;2023-05-10T13:29:23;16.00;99.90
27819;DHT22;15192;44.854;10.046;2023-05-10T13:31:52;15.90;99.90
27819;DHT22;15192;44.854;10.046;2023-05-10T13:34:21;15.90;99.90
27819;DHT22;15192;44.854;10.046;2023-05-10T13:36:50;15.80;99.90
27819;DHT22;15192;44.854;10.046;2023-05-10T13:39:20;15.70;99.90
27819;DHT22;15192;44.854;10.046;2023-05-10T13:41:49;15.80;99.90
27819;DHT22;15192;44.854;10.046;2023-05-10T13:44:19;15.90;99.90
27819;DHT22;15192;44.854;10.046;2023-05-10T13:46:48;16.00;99.90
27819;DHT22;15192;44.854;10.046;2023-05-10T13:49:18;16.10;99.90
27819;DHT22;15192;44.854;10.046;2023-05-10T13:51:46;16.20;99.90
27819;DHT22;15192;44.854;10.046;2023-05-10T13:54:15;16.30;99.90
27819;DHT22;15192;44.854;10.046;2023-05-10T13:56:46;16.30;99.90
27819;DHT22;15192;44.854;10.046;2023-05-10T13:59:16;16.50;99.90
27819;DHT22;15192;44.854;10.046;2023-05-10T14:01:45;16.50;99.90
27819;DHT22;15192;44.854;10.046;2023-05-10T14:04:14;16.60;99.90
27819;DHT22;15192;44.854;10.046;2023-05-10T14:06:42;16.50;99.90
27819;DHT22;15192;44.854;10.046;2023-05-10T14:09:11;16.50;99.90
27819;DHT22;15192;44.854;10.046;2023-05-10T14:11:40;16.40;99.90
27819;DHT22;15192;44.854;10.046;2023-05-10T14:14:11;16.20;99.90
27819;DHT22;15192;44.854;10.046;2023-05-10T14:16:44;16.10;99.90
27819;DHT22;15192;44.854;10.046;2023-05-10T14:19:14;15.90;99.90
27819;DHT22;15192;44.854;10.046;2023-05-10T14:21:43;15.80;99.90
27819;DHT22;15192;44.854;10.046;2023-05-10T14:24:12;15.90;99.90
27819;DHT22;15192;44.854;10.046;2023-05-10T14:26:40;16.10;99.90
27819;DHT22;15192;44.854;10.046;2023-05-10T14:29:09;16.10;99.90
27819;DHT22;15192;44.854;10.046;2023-05-10T14:31:38;16.00;99.90
27819;DHT22;15192;44.854;10.046;2023-05-10T14:34:07;15.90;99.90
27819;DHT22;15192;44.854;10.046;2023-05-10T14:36:36;15.90;99.90
27819;DHT22;15192;44.854;10.046;2023-05-10T14:39:05;15.90;99.90
27819;DHT22;15192;44.854;10.046;2023-05-10T14:41:34;15.90;99.90
27819;DHT22;15192;44.854;10.046;2023-05-10T14:44:03;15.90;99.90
27819;DHT22;15192;44.854;10.046;2023-05-10T14:46:32;16.00;99.90
27819;DHT22;15192;44.854;10.046;2023-05-10T14:49:02;16.10;99.90
27819;DHT22;15192;44.854;10.046;2023-05-10T14:51:31;16.20;99.90
27819;DHT22;15192;44.854;10.046;2023-05-10T14:54:00;16.50;99.90
27819;DHT22;15192;44.854;10.046;2023-05-10T14:56:30;16.70;99.90
27819;DHT22;15192;44.854;10.046;2023-05-10T14:58:59;17.00;99.90
27819;DHT22;15192;44.854;10.046;2023-05-10T15:01:28;17.10;99.90
27819;DHT22;15192;44.854;10.046;2023-05-10T15:03:56;16.90;99.90
27819;DHT22;15192;44.854;10.046;2023-05-10T15:06:30;16.60;99.90
27819;DHT22;15192;44.854;10.046;2023-05-10T15:09:00;16.50;99.90
27819;DHT22;15192;44.854;10.046;2023-05-10T15:11:29;16.30;99.90
27819;DHT22;15192;44.854;10.046;2023-05-10T15:13:58;16.20;99.90
27819;DHT22;15192;44.854;10.046;2023-05-10T15:16:27;16.10;99.90
27819;DHT22;15192;44.854;10.046;2023-05-10T15:18:55;16.10;99.90
27819;DHT22;15192;44.854;10.046;2023-05-10T15:21:24;16.10;99.90
27819;DHT22;15192;44.854;10.046;2023-05-10T15:23:53;16.00;99.90
27819;DHT22;15192;44.854;10.046;2023-05-10T15:26:22;16.00;99.90
27819;DHT22;15192;44.854;10.046;2023-05-10T15:28:51;16.00;99.90
27819;DHT22;15192;44.854;10.046;2023-05-10T15:31:20;16.00;99.90
27819;DHT22;15192;44.854;10.046;2023-05-10T15:33:49;15.80;99.90
27819;DHT22;15192;44.854;10.046;2023-05-10T15:36:18;15.70;99.90
27819;DHT22;15192;44.854;10.046;2023-05-10T15:38:47;15.50;99.90
27819;DHT22;15192;44.854;10.046;2023-05-10T15:41:16;15.50;99.90
27819;DHT22;15192;44.854;10.046;2023-05-10T15:43:45;15.40;99.90
27819;DHT22;15192;44.854;10.046;2023-05-10T15:46:14;15.40;99.90
27819;DHT22;15192;44.854;10.046;2023-05-10T15:48:42;15.30;99.90
27819;DHT22;15192;44.854;10.046;2023-05-10T15:51:11;15.30;99.90
27819;DHT22;15192;44.854;10.046;2023-05-10T15:53:40;15.30;99.90
27819;DHT22;15192;44.854;10.046;2023-05-10T15:56:09;15.30;99.90